Time;durP1;ratioP1;P1;durP2;ratioP2;P2;SDS_P1;SDS_P2;PMS_P1;PMS_P2;Temp;Humidity;BMP_temperature;BMP_pressure;BME280_temperature;BME280_humidity;BME280_pressure;Samples;Min_cycle;Max_cycle;Signal;HPM_P1;HPM_P2
2023/10/23 00:00:20;;;;;;;6.37;4.10;;;;;;;10.37;93.79;97891.38;4174660;28;20631;-84
2023/10/23 00:02:23;;;;;;;5.53;3.77;;;;;;;10.35;93.43;97891.50;4175668;28;20626;-84
2023/10/23 00:04:27;;;;;;;5.33;3.87;;;;;;;10.34;93.59;97892.47;4161887;28;20637;-84
2023/10/23 00:06:30;;;;;;;5.70;4.00;;;;;;;10.31;92.93;97894.44;4165022;28;20706;-85
2023/10/23 00:08:33;;;;;;;5.93;3.90;;;;;;;10.25;92.84;97889.66;4187086;28;21255;-84
2023/10/23 00:10:37;;;;;;;5.17;3.80;;;;;;;10.21;93.09;97888.22;4170550;28;20624;-84
2023/10/23 00:12:40;;;;;;;8.83;3.70;;;;;;;10.16;92.88;97884.25;4199106;28;20666;-84
2023/10/23 00:14:45;;;;;;;5.03;3.90;;;;;;;10.14;92.23;97891.34;4168547;28;20700;-84
2023/10/23 00:16:48;;;;;;;8.20;3.80;;;;;;;10.12;92.41;97885.44;4172487;28;20656;-84
2023/10/23 00:18:52;;;;;;;5.57;3.93;;;;;;;10.11;93.18;97881.97;4179578;28;20632;-84
2023/10/23 00:20:56;;;;;;;5.80;3.97;;;;;;;10.09;92.99;97877.81;4195488;28;20626;-84
2023/10/23 00:22:59;;;;;;;6.57;3.90;;;;;;;10.07;93.17;97879.69;4193792;28;20635;-84
2023/10/23 00:25:02;;;;;;;5.77;4.27;;;;;;;10.01;92.52;97880.97;4176709;28;20625;-84
2023/10/23 00:27:06;;;;;;;5.07;3.40;;;;;;;9.94;92.79;97884.91;4168939;28;20741;-84
2023/10/23 00:29:09;;;;;;;6.60;3.67;;;;;;;9.95;92.63;97880.53;4182334;28;20632;-84
2023/10/23 00:31:13;;;;;;;5.67;3.57;;;;;;;9.93;93.35;97890.19;4188657;28;20644;-84
2023/10/23 00:33:16;;;;;;;5.43;3.90;;;;;;;9.95;94.18;97890.94;4173288;28;21170;-84
2023/10/23 00:35:20;;;;;;;5.37;3.80;;;;;;;9.98;94.02;97895.94;4157795;28;20660;-84
2023/10/23 00:37:23;;;;;;;5.23;3.60;;;;;;;10.01;94.31;97901.81;4191990;28;20614;-84
2023/10/23 00:39:25;;;;;;;6.47;3.53;;;;;;;10.00;94.60;97905.34;4156637;28;20993;-84
2023/10/23 00:41:29;;;;;;;9.40;3.70;;;;;;;10.00;94.66;97907.13;4153669;28;21228;-84
2023/10/23 00:43:34;;;;;;;6.13;3.87;;;;;;;9.99;94.16;97911.47;4174658;28;20632;-84
2023/10/23 00:45:36;;;;;;;10.83;4.10;;;;;;;9.93;93.44;97911.91;4171453;28;21428;-84
2023/10/23 00:47:41;;;;;;;6.77;3.70;;;;;;;9.89;93.32;97910.44;4174706;28;20636;-84
2023/10/23 00:49:44;;;;;;;5.37;3.50;;;;;;;9.86;93.52;97918.44;4178097;28;20629;-84
2023/10/23 00:51:48;;;;;;;10.87;3.40;;;;;;;9.85;93.61;97918.56;4189752;28;21238;-84
2023/10/23 00:53:52;;;;;;;4.80;3.43;;;;;;;9.82;93.08;97913.56;4172113;28;21251;-84
2023/10/23 00:55:58;;;;;;;8.00;4.10;;;;;;;9.82;93.59;97921.38;4167711;28;20620;-84
2023/10/23 00:58:01;;;;;;;6.30;3.60;;;;;;;9.80;93.77;97917.19;4182442;28;20627;-84
2023/10/23 01:00:07;;;;;;;4.33;3.30;;;;;;;9.78;94.10;97908.66;4187773;28;21302;-84
2023/10/23 01:02:10;;;;;;;6.60;3.73;;;;;;;9.75;94.24;97920.09;4190459;28;21208;-84
2023/10/23 01:04:15;;;;;;;6.13;3.43;;;;;;;9.76;94.03;97910.50;4157517;28;20687;-84
2023/10/23 01:06:18;;;;;;;4.45;3.30;;;;;;;9.73;94.29;97908.16;4173634;28;20629;-84
2023/10/23 01:08:21;;;;;;;8.50;3.23;;;;;;;9.73;94.24;97918.56;4176188;28;20202;-84
2023/10/23 01:10:25;;;;;;;12.80;4.20;;;;;;;9.70;92.97;97908.34;4185604;28;20628;-84
2023/10/23 01:12:27;;;;;;;5.20;2.80;;;;;;;9.62;92.43;97910.63;4164789;28;20621;-84
2023/10/23 01:14:31;;;;;;;5.37;3.30;;;;;;;9.60;93.33;97908.13;4185859;28;20660;-84
2023/10/23 01:16:34;;;;;;;5.20;3.43;;;;;;;9.58;93.49;97912.59;4191304;28;20685;-84
2023/10/23 01:18:37;;;;;;;3.60;2.97;;;;;;;9.56;93.55;97909.28;4209319;28;20634;-84
2023/10/23 01:20:42;;;;;;;4.00;2.87;;;;;;;9.55;94.40;97902.41;4173680;28;21301;-84
2023/10/23 01:22:47;;;;;;;3.55;3.20;;;;;;;9.55;93.01;97902.41;4166034;28;20712;-84
2023/10/23 01:24:51;;;;;;;5.03;3.30;;;;;;;9.52;94.13;97904.38;4191716;28;20300;-84
2023/10/23 01:26:56;;;;;;;3.90;3.10;;;;;;;9.50;93.55;97901.03;4179712;28;20775;-84
2023/10/23 01:28:59;;;;;;;6.33;3.30;;;;;;;9.48;93.24;97895.09;4174985;28;20678;-84
2023/10/23 01:31:02;;;;;;;5.40;3.23;;;;;;;9.47;93.46;97890.81;4196057;28;20734;-84
2023/10/23 01:33:05;;;;;;;5.77;3.20;;;;;;;9.46;93.85;97894.38;4159034;28;20645;-84
2023/10/23 01:35:10;;;;;;;5.80;2.97;;;;;;;9.43;93.35;97897.19;4174194;28;20653;-84
2023/10/23 01:37:13;;;;;;;6.30;3.67;;;;;;;9.40;93.06;97886.97;4179236;28;20629;-84
2023/10/23 01:39:16;;;;;;;3.70;2.80;;;;;;;9.39;93.90;97890.50;4158807;28;20629;-84
2023/10/23 01:41:19;;;;;;;4.40;2.90;;;;;;;9.36;93.90;97890.72;4176316;28;20636;-84
2023/10/23 01:43:24;;;;;;;4.67;2.87;;;;;;;9.33;93.44;97890.91;4195790;28;20666;-84
2023/10/23 01:45:27;;;;;;;3.57;2.77;;;;;;;9.30;93.67;97885.09;4206513;28;20627;-84
2023/10/23 01:47:30;;;;;;;7.43;3.10;;;;;;;9.28;92.41;97898.19;4171814;28;21196;-84
2023/10/23 01:49:33;;;;;;;5.13;3.20;;;;;;;9.27;93.47;97901.72;4181823;28;20636;-84
2023/10/23 01:51:36;;;;;;;5.13;3.00;;;;;;;9.26;92.50;97902.69;4169189;28;20671;-84
2023/10/23 01:53:40;;;;;;;6.70;3.20;;;;;;;9.25;92.96;97898.41;4170136;28;20626;-82
2023/10/23 01:55:43;;;;;;;4.43;3.00;;;;;;;9.25;93.46;97900.19;4177500;28;20613;-84
2023/10/23 01:57:46;;;;;;;5.60;2.83;;;;;;;9.23;92.24;97907.22;4158481;28;20656;-83
2023/10/23 01:59:49;;;;;;;3.30;2.83;;;;;;;9.17;92.86;97897.22;4163608;28;20637;-83
2023/10/23 02:01:53;;;;;;;4.30;3.00;;;;;;;9.18;92.98;97897.13;4174403;28;20636;-84
2023/10/23 02:03:55;;;;;;;8.93;2.87;;;;;;;9.14;92.65;97900.03;4176978;28;20640;-84
2023/10/23 02:05:59;;;;;;;5.87;3.67;;;;;;;9.11;91.63;97900.22;4172615;28;20662;-84
2023/10/23 02:08:04;;;;;;;3.10;2.60;;;;;;;9.02;90.94;97896.47;4158458;28;20650;-84
2023/10/23 02:10:08;;;;;;;5.90;2.90;;;;;;;8.98;92.17;97892.41;4177589;28;20625;-84
2023/10/23 02:12:11;;;;;;;4.93;3.00;;;;;;;8.95;91.63;97896.97;4173002;28;21110;-84
2023/10/23 02:14:15;;;;;;;4.00;2.40;;;;;;;8.93;91.81;97894.47;4175889;28;20664;-84
2023/10/23 02:16:19;;;;;;;4.00;2.80;;;;;;;8.88;90.44;97898.31;4174198;28;21025;-84
2023/10/23 02:18:23;;;;;;;4.00;2.67;;;;;;;8.85;90.42;97889.88;4157719;28;20633;-84
2023/10/23 02:20:27;;;;;;;4.27;2.60;;;;;;;8.84;91.38;97880.41;4190066;28;20628;-84
2023/10/23 02:22:30;;;;;;;2.90;2.60;;;;;;;8.82;91.36;97890.91;4157174;28;20627;-84
2023/10/23 02:24:33;;;;;;;4.20;3.10;;;;;;;8.82;92.58;97882.28;4192523;28;20706;-84
2023/10/23 02:26:36;;;;;;;3.60;2.43;;;;;;;8.83;91.76;97889.97;4172483;28;20668;-83
2023/10/23 02:28:39;;;;;;;3.30;2.53;;;;;;;8.87;92.42;97890.59;4156953;28;20744;-84
2023/10/23 02:30:43;;;;;;;5.00;2.70;;;;;;;8.87;93.93;97895.78;4200299;28;20657;-84
2023/10/23 02:32:47;;;;;;;3.73;2.47;;;;;;;8.88;93.49;97890.50;4171145;28;20740;-83
2023/10/23 02:34:50;;;;;;;3.13;2.50;;;;;;;8.90;93.90;97888.66;4163258;28;21222;-84
2023/10/23 02:36:54;;;;;;;6.13;2.50;;;;;;;8.92;93.22;97891.16;4170336;28;20671;-84
2023/10/23 02:38:57;;;;;;;6.77;2.83;;;;;;;8.91;94.39;97895.50;4187066;28;20642;-84
2023/10/23 02:41:01;;;;;;;5.10;2.67;;;;;;;8.92;93.51;97888.56;4204226;28;20676;-84
2023/10/23 02:43:04;;;;;;;6.63;4.10;;;;;;;8.87;93.48;97888.00;4172353;28;20627;-84
2023/10/23 02:45:08;;;;;;;6.70;2.30;;;;;;;8.85;93.84;97892.47;4176427;28;20624;-84
2023/10/23 02:47:13;;;;;;;4.30;2.50;;;;;;;8.81;93.25;97888.38;4175839;28;20632;-85
2023/10/23 02:49:17;;;;;;;3.80;2.40;;;;;;;8.79;93.12;97893.69;4171929;28;20631;-84
2023/10/23 02:51:20;;;;;;;3.10;2.70;;;;;;;8.77;93.88;97889.53;4202566;28;20654;-84
2023/10/23 02:53:24;;;;;;;5.90;2.40;;;;;;;8.77;93.20;97895.56;4175728;28;20710;-84
2023/10/23 02:55:29;;;;;;;4.97;3.20;;;;;;;8.77;93.91;97900.75;4176511;28;20653;-84
2023/10/23 02:57:33;;;;;;;4.00;2.33;;;;;;;8.76;93.72;97896.50;4175134;28;20625;-84
2023/10/23 02:59:36;;;;;;;4.40;2.53;;;;;;;8.74;93.54;97902.75;4189613;28;20623;-84
2023/10/23 03:01:40;;;;;;;4.43;2.83;;;;;;;8.75;93.52;97904.38;4174022;28;20660;-84
2023/10/23 03:03:43;;;;;;;4.25;2.40;;;;;;;8.73;93.23;97903.66;4176145;28;20699;-84
2023/10/23 03:05:48;;;;;;;4.53;2.65;;;;;;;8.73;93.21;97901.06;4191981;28;25160;-84
2023/10/23 03:07:51;;;;;;;4.38;2.30;;;;;;;8.71;92.62;97906.34;4188943;28;20751;-84
2023/10/23 03:09:54;;;;;;;5.15;2.90;;;;;;;8.74;92.69;97905.34;4208775;28;20213;-84
2023/10/23 03:11:57;;;;;;;4.87;2.67;;;;;;;8.72;92.28;97907.19;4178484;28;20252;-84
2023/10/23 03:14:00;;;;;;;4.05;2.30;;;;;;;8.71;92.59;97910.72;4176384;28;20628;-84
2023/10/23 03:16:04;;;;;;;5.80;2.63;;;;;;;8.70;93.63;97906.44;4161194;28;20349;-84
2023/10/23 03:18:08;;;;;;;3.65;2.30;;;;;;;8.71;93.51;97908.13;4192561;28;20681;-84
2023/10/23 03:20:12;;;;;;;4.75;2.47;;;;;;;8.67;93.61;97904.88;4177199;28;20252;-84
2023/10/23 03:22:17;;;;;;;6.03;4.50;;;;;;;8.65;93.81;97904.16;4185401;28;20213;-84
2023/10/23 03:24:20;;;;;;;4.50;2.97;;;;;;;8.63;93.74;97902.56;4177343;28;20738;-84
2023/10/23 03:26:23;;;;;;;5.20;2.60;;;;;;;8.62;93.30;97898.31;4159910;28;20668;-84
2023/10/23 03:28:25;;;;;;;4.30;2.88;;;;;;;8.58;92.97;97899.44;4193169;28;20259;-84
2023/10/23 03:30:29;;;;;;;4.30;2.58;;;;;;;8.52;90.41;97894.63;4194219;28;20263;-84
2023/10/23 03:32:32;;;;;;;3.40;2.20;;;;;;;8.48;90.99;97898.38;4147610;28;20203;-84
2023/10/23 03:34:35;;;;;;;6.30;2.63;;;;;;;8.45;91.07;97898.56;4207769;28;21027;-84
2023/10/23 03:36:39;;;;;;;3.53;2.50;;;;;;;8.46;91.41;97897.59;4192124;28;20659;-84
2023/10/23 03:38:43;;;;;;;3.78;2.70;;;;;;;8.46;92.62;97902.81;4180745;28;20201;-84
2023/10/23 03:40:55;;;;;;;5.13;2.70;;;;;;;8.46;93.00;97905.41;4209629;28;20212;-84
2023/10/23 03:43:00;;;;;;;4.00;2.35;;;;;;;8.43;91.68;97897.81;4184051;28;21203;-84
2023/10/23 03:45:03;;;;;;;9.50;3.13;;;;;;;8.43;93.47;97899.56;4187366;28;20214;-83
2023/10/23 03:47:06;;;;;;;3.10;2.55;;;;;;;8.44;93.55;97896.88;4188760;28;20214;-84
2023/10/23 03:49:09;;;;;;;5.75;2.83;;;;;;;8.44;92.29;97904.69;4180612;28;20213;-84
2023/10/23 03:51:12;;;;;;;2.65;2.00;;;;;;;8.44;93.13;97898.66;4175029;28;20217;-84
2023/10/23 03:53:14;;;;;;;4.33;2.40;;;;;;;8.45;92.42;97898.56;4193502;28;20201;-83
2023/10/23 03:55:19;;;;;;;5.00;2.50;;;;;;;8.45;92.46;97895.97;4177111;28;20694;-84
2023/10/23 03:57:22;;;;;;;6.68;2.95;;;;;;;8.42;92.11;97898.75;4193301;28;20209;-84
2023/10/23 03:59:25;;;;;;;3.95;2.55;;;;;;;8.39;92.73;97901.53;4191278;28;20197;-84
2023/10/23 04:01:29;;;;;;;6.33;2.40;;;;;;;8.33;90.79;97895.88;4173178;28;20233;-84
2023/10/23 04:03:32;;;;;;;4.53;3.10;;;;;;;8.30;90.63;97893.47;4196892;28;20639;-83
2023/10/23 04:05:39;;;;;;;7.97;3.03;;;;;;;8.29;91.57;97892.63;4189518;28;20637;-84
2023/10/23 04:07:42;;;;;;;6.78;2.67;;;;;;;8.28;92.06;97888.38;4170912;28;20628;-84
2023/10/23 04:09:45;;;;;;;5.90;2.63;;;;;;;8.28;92.96;97879.75;4174993;28;20215;-84
2023/10/23 04:11:50;;;;;;;3.45;2.63;;;;;;;8.31;93.55;97884.75;4188316;28;20751;-83
2023/10/23 04:13:53;;;;;;;4.18;2.80;;;;;;;8.30;91.51;97878.72;4189688;28;20763;-84
2023/10/23 04:15:57;;;;;;;4.55;2.63;;;;;;;8.26;91.46;97876.44;4193027;28;20221;-84
2023/10/23 04:18:01;;;;;;;4.45;2.63;;;;;;;8.25;92.02;97874.75;4178219;28;20205;-84
2023/10/23 04:20:04;;;;;;;3.72;2.90;;;;;;;8.23;92.50;97874.84;4195368;28;20746;-84
2023/10/23 04:22:08;;;;;;;5.50;2.70;;;;;;;8.21;92.50;97879.31;4178298;28;20256;-84
2023/10/23 04:24:11;;;;;;;4.50;2.88;;;;;;;8.24;93.31;97886.06;4172147;28;21236;-84
2023/10/23 04:26:14;;;;;;;4.90;2.80;;;;;;;8.23;91.69;97885.22;4170064;28;20256;-84
2023/10/23 04:28:19;;;;;;;3.38;2.30;;;;;;;8.22;91.89;97880.94;4170889;28;20585;-84
2023/10/23 04:30:22;;;;;;;4.00;2.50;;;;;;;8.21;92.48;97879.31;4178011;28;20218;-84
2023/10/23 04:32:24;;;;;;;3.90;2.97;;;;;;;8.22;93.75;97878.34;4173536;28;20210;-83
2023/10/23 04:34:28;;;;;;;6.32;2.97;;;;;;;8.21;92.99;97874.13;4193145;28;21082;-84
2023/10/23 04:36:31;;;;;;;4.77;2.60;;;;;;;8.22;92.38;97874.94;4193200;28;20209;-83
2023/10/23 04:38:34;;;;;;;3.30;2.50;;;;;;;8.23;92.92;97871.41;4162235;28;20649;-84
2023/10/23 04:40:37;;;;;;;5.67;2.27;;;;;;;8.22;91.92;97869.75;4192792;28;20634;-84
2023/10/23 04:42:39;;;;;;;5.03;3.40;;;;;;;8.17;91.69;97864.84;4177921;28;20678;-83
2023/10/23 04:44:47;;;;;;;4.00;2.45;;;;;;;8.14;92.32;97870.22;4189185;28;20242;-83
2023/10/23 04:46:50;;;;;;;4.37;2.80;;;;;;;8.14;91.57;97862.44;4156754;28;20238;-84
2023/10/23 04:48:53;;;;;;;4.22;3.20;;;;;;;8.15;91.46;97858.09;4174383;28;21180;-83
2023/10/23 04:50:59;;;;;;;3.42;2.60;;;;;;;8.11;92.99;97857.41;4156039;28;20215;-83
2023/10/23 04:53:03;;;;;;;5.97;3.20;;;;;;;8.10;92.16;97847.94;4188625;28;20217;-84
2023/10/23 04:55:07;;;;;;;4.53;3.00;;;;;;;8.10;92.11;97850.56;4173228;28;20767;-84
2023/10/23 04:57:10;;;;;;;4.88;2.83;;;;;;;8.10;93.23;97860.09;4157846;28;20334;-84
2023/10/23 04:59:13;;;;;;;5.70;2.85;;;;;;;8.07;91.93;97850.75;4173282;28;20293;-83
2023/10/23 05:01:17;;;;;;;4.13;3.13;;;;;;;8.07;93.52;97855.94;4185821;28;20682;-83
2023/10/23 05:03:20;;;;;;;5.40;3.05;;;;;;;8.06;92.29;97854.25;4190265;28;20684;-84
2023/10/23 05:05:23;;;;;;;4.07;3.17;;;;;;;8.05;92.98;97857.78;4185214;28;20229;-82
2023/10/23 05:07:26;;;;;;;5.10;3.80;;;;;;;8.04;93.62;97860.47;4172066;28;20206;-83
2023/10/23 05:09:31;;;;;;;5.30;2.83;;;;;;;8.04;92.16;97856.13;4158888;28;21063;-84
2023/10/23 05:11:34;;;;;;;6.03;3.28;;;;;;;8.00;92.42;97859.00;4178785;28;20210;-83
2023/10/23 05:13:37;;;;;;;4.75;2.95;;;;;;;7.95;91.76;97853.25;4155295;28;20222;-84
2023/10/23 05:15:41;;;;;;;3.63;2.33;;;;;;;7.89;91.07;97860.59;4184934;28;20205;-82
2023/10/23 05:17:45;;;;;;;4.90;2.90;;;;;;;7.86;91.06;97852.97;4187772;28;21090;-82
2023/10/23 05:19:48;;;;;;;4.20;2.80;;;;;;;7.87;92.22;97852.06;4158861;28;21321;-82
2023/10/23 05:21:52;;;;;;;3.88;2.60;;;;;;;7.89;92.39;97852.78;4187065;28;20635;-82
2023/10/23 05:23:56;;;;;;;10.73;2.75;;;;;;;7.88;92.02;97851.13;4180460;28;20200;-82
2023/10/23 05:25:59;;;;;;;3.30;3.00;;;;;;;7.85;93.23;97838.31;4185039;28;20217;-82
2023/10/23 05:28:03;;;;;;;4.90;2.88;;;;;;;7.84;92.16;97852.25;4187068;28;21433;-84
2023/10/23 05:30:07;;;;;;;5.27;3.00;;;;;;;7.80;92.28;97846.38;4173845;28;20198;-84
2023/10/23 05:32:10;;;;;;;3.88;2.50;;;;;;;7.75;91.99;97838.06;4170452;28;21209;-85
2023/10/23 05:34:15;;;;;;;4.75;3.25;;;;;;;7.73;91.51;97839.94;4186851;28;20197;-84
2023/10/23 05:36:18;;;;;;;6.90;3.40;;;;;;;7.73;91.08;97839.09;4190282;28;20233;-83
2023/10/23 05:38:21;;;;;;;4.82;3.25;;;;;;;7.73;90.85;97842.53;4158983;28;20297;-85
2023/10/23 05:40:24;;;;;;;4.57;2.67;;;;;;;7.75;91.24;97842.44;4175884;28;20762;-85
2023/10/23 05:42:27;;;;;;;6.32;2.95;;;;;;;7.77;92.57;97848.34;4186910;28;20255;-84
2023/10/23 05:44:30;;;;;;;6.72;3.25;;;;;;;7.78;91.93;97850.84;4175071;28;20209;-85
2023/10/23 05:46:34;;;;;;;5.22;3.90;;;;;;;7.81;91.70;97860.22;4190789;28;20776;-85
2023/10/23 05:48:37;;;;;;;7.68;4.55;;;;;;;7.81;93.12;97868.84;4191296;28;20313;-85
2023/10/23 05:50:42;;;;;;;8.23;3.30;;;;;;;7.80;90.92;97861.13;4180301;28;20703;-85
2023/10/23 05:52:47;;;;;;;4.07;2.90;;;;;;;7.76;91.61;97859.69;4185365;28;20755;-85
2023/10/23 05:54:50;;;;;;;6.88;3.78;;;;;;;7.72;91.91;97866.78;4174988;28;20216;-85
2023/10/23 05:56:53;;;;;;;6.93;4.28;;;;;;;7.70;93.15;97855.69;4174755;28;20226;-85
2023/10/23 05:58:57;;;;;;;6.35;4.43;;;;;;;7.74;93.58;97866.69;4183004;28;20301;-84
2023/10/23 06:01:04;;;;;;;5.20;3.85;;;;;;;7.74;92.96;97867.56;4183600;28;20964;-85
2023/10/23 06:03:08;;;;;;;7.20;3.92;;;;;;;7.71;92.84;97872.06;4181560;28;20225;-85
2023/10/23 06:05:11;;;;;;;14.48;7.43;;;;;;;7.70;92.03;97870.44;4175161;28;20585;-84
2023/10/23 06:07:15;;;;;;;8.25;4.35;;;;;;;7.73;92.56;97880.63;4177370;28;20252;-85
2023/10/23 06:09:19;;;;;;;7.68;4.00;;;;;;;7.74;91.52;97880.53;4204139;28;20201;-84
2023/10/23 06:11:21;;;;;;;7.65;4.70;;;;;;;7.78;92.69;97873.38;4166743;28;20264;-85
2023/10/23 06:13:24;;;;;;;5.53;3.70;;;;;;;7.76;92.51;97880.44;4187929;28;20205;-85
2023/10/23 06:15:27;;;;;;;5.70;3.80;;;;;;;7.77;92.53;97882.09;4203775;28;20268;-85
2023/10/23 06:17:31;;;;;;;7.95;4.10;;;;;;;7.80;92.84;97881.91;4176747;28;20664;-85
2023/10/23 06:19:34;;;;;;;5.30;3.78;;;;;;;7.86;92.51;97882.34;4173414;28;20209;-85
2023/10/23 06:21:37;;;;;;;6.28;4.20;;;;;;;7.97;92.69;97893.78;4168675;28;20208;-84
2023/10/23 06:23:42;;;;;;;7.72;4.15;;;;;;;8.04;93.41;97887.28;4198891;28;20198;-85
2023/10/23 06:25:54;;;;;;;8.63;3.90;;;;;;;8.14;93.64;97883.19;4161896;28;20223;-85
2023/10/23 06:27:58;;;;;;;5.93;3.60;;;;;;;8.22;93.62;97887.91;4175188;28;21206;-85
2023/10/23 06:30:01;;;;;;;5.85;3.90;;;;;;;8.32;91.59;97895.03;4174183;28;20214;-85
2023/10/23 06:32:06;;;;;;;4.60;4.00;;;;;;;8.40;91.70;97892.78;4158286;28;20199;-85
2023/10/23 06:34:09;;;;;;;7.30;4.50;;;;;;;8.45;92.39;97904.56;4169376;28;20208;-85
2023/10/23 06:36:12;;;;;;;4.57;3.60;;;;;;;8.48;93.31;97896.59;4177335;28;20206;-84
2023/10/23 06:38:16;;;;;;;5.82;3.80;;;;;;;8.52;92.78;97902.41;4156350;28;20297;-84
2023/10/23 06:40:20;;;;;;;8.05;4.05;;;;;;;8.56;91.97;97896.09;4172039;28;20212;-85
2023/10/23 06:42:25;;;;;;;6.75;4.13;;;;;;;8.63;93.56;97892.16;4175746;28;20202;-85
2023/10/23 06:44:28;;;;;;;5.35;3.58;;;;;;;8.67;92.58;97897.06;4180905;28;20202;-85
2023/10/23 06:46:31;;;;;;;5.55;3.33;;;;;;;8.75;93.32;97889.63;4179339;28;20269;-85
2023/10/23 06:48:35;;;;;;;6.03;3.85;;;;;;;8.82;91.93;97884.88;4156379;28;20600;-85
2023/10/23 06:50:39;;;;;;;6.47;3.55;;;;;;;8.94;91.55;97888.34;4179470;28;20706;-85
2023/10/23 06:52:42;;;;;;;5.10;3.13;;;;;;;9.09;90.35;97882.13;4179834;28;20860;-85
2023/10/23 06:54:45;;;;;;;6.53;4.20;;;;;;;9.26;90.88;97881.88;4177057;28;21014;-85
2023/10/23 06:56:50;;;;;;;7.32;3.25;;;;;;;9.40;90.47;97882.59;4174441;28;20696;-83
2023/10/23 06:58:53;;;;;;;6.60;3.43;;;;;;;9.53;90.21;97878.25;4176501;28;20610;-83
2023/10/23 07:00:56;;;;;;;4.03;3.63;;;;;;;9.75;90.05;97885.44;4173204;28;20629;-83
2023/10/23 07:03:00;;;;;;;5.00;4.05;;;;;;;9.84;89.25;97894.25;4204433;28;20201;-83
2023/10/23 07:05:04;;;;;;;6.65;3.60;;;;;;;9.93;90.46;97896.25;4173633;28;20217;-83
2023/10/23 07:07:07;;;;;;;5.47;4.10;;;;;;;10.10;89.69;97898.56;4186157;28;20198;-83
2023/10/23 07:09:31;;;;;;;6.82;4.53;;;;;;;10.30;88.91;97898.00;4179618;28;20735;-84
2023/10/23 07:11:35;;;;;;;5.50;3.70;;;;;;;10.47;89.88;97902.84;4175143;28;20241;-83
2023/10/23 07:13:39;;;;;;;6.27;3.73;;;;;;;10.35;87.62;97898.50;4174356;28;20224;-83
2023/10/23 07:15:42;;;;;;;5.53;4.10;;;;;;;10.16;88.56;97894.69;4172429;28;21015;-83
2023/10/23 07:17:46;;;;;;;5.03;3.93;;;;;;;10.00;88.48;97887.09;4191193;28;20652;-83
2023/10/23 07:19:50;;;;;;;5.43;4.13;;;;;;;9.87;89.92;97888.84;4177202;28;20637;-84
2023/10/23 07:21:54;;;;;;;6.83;4.47;;;;;;;9.80;90.42;97891.16;4171128;28;20628;-83
2023/10/23 07:23:57;;;;;;;6.67;4.73;;;;;;;9.74;90.66;97888.97;4172188;28;21017;-84
2023/10/23 07:26:02;;;;;;;7.63;5.40;;;;;;;9.69;90.41;97883.25;4173083;28;20648;-84
2023/10/23 07:28:05;;;;;;;7.85;5.35;;;;;;;9.64;90.32;97883.56;4188942;28;20202;-84
2023/10/23 07:30:13;;;;;;;21.20;14.10;;;;;;;9.62;91.08;97875.03;4172173;28;20234;-84
2023/10/23 07:32:16;;;;;;;9.07;6.07;;;;;;;9.66;90.75;97863.44;4209647;28;20664;-84
2023/10/23 07:34:19;;;;;;;12.10;8.30;;;;;;;9.59;89.50;97859.59;4170619;28;21059;-85
2023/10/23 07:36:23;;;;;;;12.13;8.23;;;;;;;9.53;89.77;97848.75;4162031;28;20703;-84
2023/10/23 07:38:25;;;;;;;12.32;8.00;;;;;;;9.52;89.93;97845.34;4173615;28;20687;-85
2023/10/23 07:40:29;;;;;;;7.43;5.60;;;;;;;9.48;90.10;97845.66;4192231;28;20201;-84
2023/10/23 07:42:31;;;;;;;12.68;7.35;;;;;;;9.52;91.54;97849.72;4176175;28;20214;-84
2023/10/23 07:44:34;;;;;;;8.73;6.50;;;;;;;9.55;91.39;97846.91;4175457;28;20273;-84
2023/10/23 07:46:39;;;;;;;10.70;6.00;;;;;;;9.58;91.82;97839.72;4177022;28;20595;-85
2023/10/23 07:48:42;;;;;;;10.27;6.70;;;;;;;9.64;92.87;97844.50;4189812;28;20616;-84
2023/10/23 07:50:46;;;;;;;10.40;6.80;;;;;;;9.70;93.10;97838.03;4176830;28;20741;-85
2023/10/23 07:52:50;;;;;;;10.20;7.03;;;;;;;9.79;93.70;97837.38;4174889;28;20210;-85
2023/10/23 07:54:53;;;;;;;9.27;5.97;;;;;;;9.81;93.04;97823.31;4158232;28;20914;-84
2023/10/23 07:56:56;;;;;;;8.07;5.00;;;;;;;9.89;93.75;97824.47;4170696;28;20636;-85
2023/10/23 07:59:00;;;;;;;6.72;4.20;;;;;;;9.97;93.48;97822.19;4161503;28;20812;-85
2023/10/23 08:01:04;;;;;;;5.60;3.63;;;;;;;10.03;93.27;97832.19;4171808;28;20294;-85
2023/10/23 08:03:09;;;;;;;5.37;3.87;;;;;;;10.10;93.51;97836.03;4160951;28;20641;-84
2023/10/23 08:05:13;;;;;;;6.70;4.03;;;;;;;10.22;95.24;97840.34;4202966;28;20619;-84
2023/10/23 08:07:16;;;;;;;7.20;4.70;;;;;;;10.32;94.42;97841.38;4158750;28;20710;-85
2023/10/23 08:09:19;;;;;;;6.93;4.47;;;;;;;10.41;94.67;97845.94;4174804;28;20222;-85
2023/10/23 08:11:22;;;;;;;6.23;4.17;;;;;;;10.49;94.51;97843.59;4188360;28;20735;-85
2023/10/23 08:13:24;;;;;;;8.07;4.30;;;;;;;10.58;93.83;97848.97;4194605;28;20727;-85
2023/10/23 08:15:27;;;;;;;6.57;4.53;;;;;;;10.68;94.24;97841.34;4184624;28;20671;-84
2023/10/23 08:17:31;;;;;;;6.30;4.23;;;;;;;10.73;93.78;97840.03;4161263;28;20637;-85
2023/10/23 08:19:46;;;;;;;7.27;4.47;;;;;;;10.81;94.27;97838.53;4206925;28;20616;-85
2023/10/23 08:21:49;;;;;;;5.03;4.00;;;;;;;10.91;93.78;97839.53;4166073;28;20642;-84
2023/10/23 08:23:54;;;;;;;6.63;5.17;;;;;;;11.01;94.36;97835.31;4194874;28;20637;-84
2023/10/23 08:25:57;;;;;;;7.20;5.00;;;;;;;11.07;95.26;97832.22;4188267;28;20709;-85
2023/10/23 08:28:02;;;;;;;9.40;4.83;;;;;;;11.10;94.31;97828.56;4154390;28;21096;-85
2023/10/23 08:30:06;;;;;;;7.30;4.60;;;;;;;11.15;93.53;97827.28;4162420;28;20625;-85
2023/10/23 08:32:10;;;;;;;5.13;4.63;;;;;;;11.22;94.67;97831.09;4187625;28;20673;-85
2023/10/23 08:34:13;;;;;;;10.37;4.97;;;;;;;11.28;95.40;97830.63;4158879;28;20682;-84
2023/10/23 08:36:18;;;;;;;8.97;5.47;;;;;;;11.32;94.33;97837.28;4178848;28;21170;-85
2023/10/23 08:38:20;;;;;;;8.40;5.17;;;;;;;11.33;93.95;97831.94;4162268;28;20740;-85
2023/10/23 08:40:23;;;;;;;9.43;4.80;;;;;;;11.38;94.38;97834.19;4176955;28;20636;-85
2023/10/23 08:42:27;;;;;;;8.03;5.77;;;;;;;11.42;96.21;97819.97;4171823;28;20621;-85
2023/10/23 08:44:30;;;;;;;5.93;4.97;;;;;;;11.46;96.58;97829.25;4175008;28;20663;-85
2023/10/23 08:46:34;;;;;;;8.10;5.00;;;;;;;11.49;95.54;97826.44;4161034;28;20629;-85
2023/10/23 08:48:37;;;;;;;6.70;5.03;;;;;;;11.54;95.71;97826.91;4157718;28;20625;-85
2023/10/23 08:50:42;;;;;;;10.50;5.37;;;;;;;11.60;95.52;97831.66;4176477;28;20727;-85
2023/10/23 08:52:57;;;;;;;6.30;5.53;;;;;;;11.70;97.08;97835.22;4177826;28;20635;-84
2023/10/23 08:55:01;;;;;;;8.27;6.00;;;;;;;11.73;95.43;97838.44;4171424;28;21328;-85
2023/10/23 08:57:04;;;;;;;17.77;13.53;;;;;;;11.77;95.41;97838.09;4205990;28;21195;-85
2023/10/23 08:59:10;;;;;;;7.13;6.00;;;;;;;11.82;97.19;97837.75;4185716;28;20649;-85
2023/10/23 09:01:14;;;;;;;12.77;5.80;;;;;;;11.83;96.43;97839.38;4171347;28;20630;-85
2023/10/23 09:03:19;;;;;;;8.03;6.07;;;;;;;11.82;94.55;97846.41;4204370;28;20997;-85
2023/10/23 09:05:42;;;;;;;6.13;5.53;;;;;;;11.89;94.66;97834.53;4170912;28;20629;-85
2023/10/23 09:07:47;;;;;;;8.50;5.20;;;;;;;11.96;95.89;97840.13;4169768;28;20673;-85
2023/10/23 09:09:50;;;;;;;9.17;6.40;;;;;;;12.00;93.93;97838.94;4160089;28;20637;-85
2023/10/23 09:11:54;;;;;;;8.03;5.50;;;;;;;12.03;94.60;97829.06;4176528;28;20624;-85
2023/10/23 09:13:56;;;;;;;6.67;5.53;;;;;;;12.10;94.00;97827.59;4190700;28;21473;-85
2023/10/23 09:15:59;;;;;;;8.53;6.17;;;;;;;12.15;95.10;97824.63;4161401;28;20728;-85
2023/10/23 09:18:03;;;;;;;9.40;5.50;;;;;;;12.17;95.74;97823.56;4190667;28;20667;-85
2023/10/23 09:20:21;;;;;;;9.70;7.83;;;;;;;12.23;94.04;97815.25;4193873;28;21089;-85
2023/10/23 09:22:29;;;;;;;7.60;5.37;;;;;;;12.34;95.71;97834.38;4169449;28;20626;-85
2023/10/23 09:24:33;;;;;;;7.03;5.50;;;;;;;12.43;96.11;97833.66;4162179;28;21046;-85
2023/10/23 09:26:35;;;;;;;6.77;5.27;;;;;;;12.51;97.11;97826.00;4206701;28;20633;-85
2023/10/23 09:28:39;;;;;;;6.73;5.57;;;;;;;12.58;97.62;97829.78;4174722;28;20632;-85
2023/10/23 09:30:44;;;;;;;6.60;5.40;;;;;;;12.65;95.61;97830.13;4177643;28;21082;-85
2023/10/23 09:32:50;;;;;;;8.50;5.80;;;;;;;12.71;95.71;97833.91;4177400;28;20638;-85
2023/10/23 09:34:53;;;;;;;8.43;6.30;;;;;;;12.76;95.81;97820.44;4189091;28;20684;-85
2023/10/23 09:36:57;;;;;;;6.40;5.07;;;;;;;12.83;95.69;97819.03;4173115;28;20626;-85
2023/10/23 09:39:00;;;;;;;8.77;6.40;;;;;;;12.82;94.85;97804.25;4173352;28;20658;-85
2023/10/23 09:41:04;;;;;;;55.77;28.03;;;;;;;12.83;93.89;97801.53;4195133;28;20639;-86
2023/10/23 09:43:08;;;;;;;33.13;18.23;;;;;;;12.91;96.07;97808.75;4175236;28;20611;-86
2023/10/23 09:45:11;;;;;;;19.93;10.20;;;;;;;12.96;95.83;97812.66;4173444;28;20657;-85
2023/10/23 09:47:16;;;;;;;7.60;5.73;;;;;;;13.04;96.02;97817.28;4176717;28;20683;-85